Time;durP1;ratioP1;P1;durP2;ratioP2;P2;SDS_P1;SDS_P2;PMS_P1;PMS_P2;Temp;Humidity;BMP_temperature;BMP_pressure;BME280_temperature;BME280_humidity;BME280_pressure;Samples;Min_cycle;Max_cycle;Signal;HPM_P1;HPM_P2
2022/08/29 00:00:34;;;;;;;13.35;6.47;;;;;;;27.11;63.05;101196.44;5071864;28;20099;-83
2022/08/29 00:03:00;;;;;;;15.40;6.50;;;;;;;27.08;62.56;101193.78;5071864;28;20028;-82
2022/08/29 00:05:29;;;;;;;13.45;6.07;;;;;;;27.12;62.88;101195.53;5072453;28;20401;-81
2022/08/29 00:07:55;;;;;;;16.15;6.43;;;;;;;27.09;62.95;101190.19;5052856;28;20408;-81
2022/08/29 00:10:21;;;;;;;14.10;6.47;;;;;;;27.10;63.04;101193.78;5069980;28;20035;-81
2022/08/29 00:12:47;;;;;;;19.83;6.30;;;;;;;27.08;62.61;101191.09;5072510;28;20028;-82
2022/08/29 00:15:13;;;;;;;16.25;6.30;;;;;;;26.97;62.55;101171.53;5065699;28;20108;-83
2022/08/29 00:17:41;;;;;;;14.50;6.43;;;;;;;27.05;62.85;101190.22;5034250;28;20029;-82
2022/08/29 00:20:09;;;;;;;15.25;6.35;;;;;;;27.05;62.59;101190.22;5071695;28;20455;-82
2022/08/29 00:22:34;;;;;;;13.98;6.10;;;;;;;27.09;62.84;101189.31;5070907;28;20017;-83
2022/08/29 00:25:03;;;;;;;22.38;6.13;;;;;;;27.07;62.64;101189.31;5068528;28;20086;-82
2022/08/29 00:27:29;;;;;;;10.93;5.85;;;;;;;27.06;63.01;101192.91;5070627;28;20529;-82
2022/08/29 00:29:55;;;;;;;12.57;6.30;;;;;;;27.07;62.96;101189.31;5072249;28;20054;-82
2022/08/29 00:32:21;;;;;;;16.48;6.13;;;;;;;27.02;62.79;101186.66;5071276;28;20647;-82
2022/08/29 00:34:47;;;;;;;17.98;6.13;;;;;;;27.05;62.27;101184.88;5070978;28;20040;-82
2022/08/29 00:37:13;;;;;;;16.10;5.97;;;;;;;27.06;62.60;101186.66;5071130;28;20020;-82
2022/08/29 00:39:39;;;;;;;13.07;5.90;;;;;;;27.05;62.42;101184.88;5053049;28;20111;-82
2022/08/29 00:42:05;;;;;;;15.32;6.00;;;;;;;27.02;62.34;101180.44;5071027;28;20103;-82
2022/08/29 00:44:30;;;;;;;15.65;6.40;;;;;;;27.05;62.73;101177.75;5070659;28;20020;-82
2022/08/29 00:46:58;;;;;;;16.52;6.35;;;;;;;26.97;62.56;101174.22;5070953;28;20115;-82
2022/08/29 00:49:45;;;;;;;16.15;6.07;;;;;;;27.02;62.57;101188.47;5069680;28;20070;-81
2022/08/29 00:52:46;;;;;;;;;;;;;;;27.05;62.57;101180.41;5053223;28;20033;-82
2022/08/29 00:55:15;;;;;;;20.35;6.40;;;;;;;27.02;62.40;101186.66;5015159;28;19939;-81
2022/08/29 00:57:45;;;;;;;17.20;5.80;;;;;;;27.04;62.45;101183.97;5057765;28;20071;-82
2022/08/29 01:00:12;;;;;;;15.38;6.20;;;;;;;27.04;63.02;101183.97;5053349;28;20031;-82
2022/08/29 01:02:41;;;;;;;17.42;6.18;;;;;;;27.01;62.39;101181.34;5049300;28;20412;-83
2022/08/29 01:05:11;;;;;;;17.80;6.07;;;;;;;26.93;62.15;101175.16;5070417;28;20116;-82
2022/08/29 01:07:38;;;;;;;15.02;6.28;;;;;;;26.99;62.36;101184.03;5069903;28;20024;-82
2022/08/29 01:10:05;;;;;;;20.25;6.00;;;;;;;27.00;62.05;101183.09;5046172;28;20061;-83
2022/08/29 01:12:32;;;;;;;14.57;5.95;;;;;;;27.01;62.50;101181.34;5053782;28;20086;-83
2022/08/29 01:15:01;;;;;;;19.42;6.10;;;;;;;27.03;62.00;101187.59;5070513;28;20549;-82
2022/08/29 01:17:34;;;;;;;19.73;6.00;;;;;;;26.99;62.29;101172.41;5066140;28;20039;-81
2022/08/29 01:20:09;;;;;;;17.00;5.85;;;;;;;27.01;62.57;101178.66;5065279;28;20028;-82
2022/08/29 01:22:43;;;;;;;14.30;5.82;;;;;;;27.01;62.31;101178.66;5051988;28;20817;-82
2022/08/29 01:25:15;;;;;;;12.90;5.60;;;;;;;27.01;62.50;101182.22;5034368;28;20486;-83
2022/08/29 01:27:43;;;;;;;18.85;6.30;;;;;;;26.96;62.24;101177.78;5043841;28;20029;-83
2022/08/29 01:30:11;;;;;;;16.38;6.07;;;;;;;27.00;61.90;101188.47;5042220;28;20076;-82
2022/08/29 01:32:36;;;;;;;14.48;5.70;;;;;;;26.96;62.48;101184.03;5066187;28;20070;-81
2022/08/29 01:35:02;;;;;;;16.73;5.82;;;;;;;26.98;62.14;101181.34;5071185;28;20141;-82
2022/08/29 01:37:30;;;;;;;17.02;6.10;;;;;;;26.96;61.97;101181.34;5068653;28;20028;-81
2022/08/29 01:39:56;;;;;;;14.70;6.07;;;;;;;26.94;61.67;101166.19;5053112;28;20039;-80
2022/08/29 01:42:23;;;;;;;16.50;5.85;;;;;;;26.92;62.20;101165.31;5051967;28;20028;-82
2022/08/29 01:44:54;;;;;;;15.50;5.53;;;;;;;26.87;61.69;101161.78;5069286;28;20102;-81
2022/08/29 01:47:21;;;;;;;18.10;5.80;;;;;;;26.97;61.54;101179.59;5066558;28;20503;-82
2022/08/29 01:49:47;;;;;;;16.73;5.45;;;;;;;26.96;61.58;101175.97;5030290;28;20032;-82
2022/08/29 01:52:12;;;;;;;15.48;6.05;;;;;;;26.92;61.84;101159.94;5069368;28;20043;-81
2022/08/29 01:54:40;;;;;;;13.82;5.78;;;;;;;26.96;61.88;101177.78;5069771;28;20035;-82
2022/08/29 01:57:06;;;;;;;15.40;5.75;;;;;;;26.89;61.35;101155.50;5039145;28;20055;-82
2022/08/29 01:59:32;;;;;;;17.48;5.88;;;;;;;26.90;61.87;101161.75;5070250;28;20048;-82
2022/08/29 02:02:16;;;;;;;15.32;5.90;;;;;;;26.88;61.92;101158.19;5065620;28;20111;-82
2022/08/29 02:04:44;;;;;;;13.77;5.90;;;;;;;26.93;61.68;101175.16;5045624;28;20033;-84
2022/08/29 02:07:09;;;;;;;20.20;5.97;;;;;;;26.91;61.59;101160.84;5052123;28;20023;-82
2022/08/29 02:09:36;;;;;;;13.07;5.88;;;;;;;26.93;61.61;101170.66;5070237;28;20025;-83
2022/08/29 02:12:05;;;;;;;16.95;5.70;;;;;;;26.91;61.74;101167.09;5056596;28;20576;-82
2022/08/29 02:14:34;;;;;;;14.27;5.75;;;;;;;26.93;61.68;101173.34;5069159;28;20390;-83
2022/08/29 02:17:05;;;;;;;16.48;6.10;;;;;;;26.89;61.68;101162.66;5051888;28;20055;-83
2022/08/29 02:19:31;;;;;;;20.92;6.47;;;;;;;26.87;61.86;101156.41;5055547;28;20024;-82
2022/08/29 02:21:57;;;;;;;15.93;5.80;;;;;;;26.81;61.55;101147.50;5061570;28;20027;-82
2022/08/29 02:24:22;;;;;;;16.38;5.85;;;;;;;26.84;61.24;101160.03;5065686;28;20032;-83
2022/08/29 02:26:48;;;;;;;17.23;5.68;;;;;;;26.87;61.37;101157.31;5063491;28;20028;-83
2022/08/29 02:29:14;;;;;;;;;;;;;;;26.94;61.14;101172.44;5056079;28;20023;-82
2022/08/29 02:31:41;;;;;;;18.27;6.38;;;;;;;26.89;61.55;101170.69;5073228;28;20381;-83
2022/08/29 02:34:07;;;;;;;17.92;5.65;;;;;;;26.88;61.27;101171.59;5072986;28;20029;-83
2022/08/29 02:36:34;;;;;;;15.95;5.53;;;;;;;26.88;61.76;101172.50;5073139;28;20055;-83
2022/08/29 02:38:59;;;;;;;16.50;5.13;;;;;;;26.87;62.24;101176.06;5054436;28;20028;-83
2022/08/29 02:41:25;;;;;;;16.40;5.78;;;;;;;26.86;61.47;101163.59;5056262;28;20027;-83
2022/08/29 02:43:51;;;;;;;16.45;5.65;;;;;;;26.87;61.50;101173.38;5070739;28;20503;-82
2022/08/29 02:46:18;;;;;;;16.48;5.82;;;;;;;26.86;61.31;101166.25;5070565;28;20120;-83
2022/08/29 02:48:45;;;;;;;17.33;5.65;;;;;;;26.86;61.46;101168.94;5071542;28;20370;-82
2022/08/29 02:51:27;;;;;;;13.88;5.32;;;;;;;26.84;61.32;101172.50;5071978;28;20026;-83
2022/08/29 02:53:54;;;;;;;13.82;5.75;;;;;;;26.83;61.74;101168.94;5054284;28;20085;-82
2022/08/29 02:56:19;;;;;;;14.00;5.68;;;;;;;26.80;61.47;101172.53;5073173;28;20019;-83
2022/08/29 02:58:46;;;;;;;18.38;6.03;;;;;;;26.83;61.88;101168.94;5072750;28;20040;-83
2022/08/29 03:01:12;;;;;;;21.17;5.70;;;;;;;26.84;61.83;101175.19;5054918;28;20029;-83
2022/08/29 03:03:38;;;;;;;15.75;5.72;;;;;;;26.82;61.22;101175.22;5072015;28;20527;-83
2022/08/29 03:06:04;;;;;;;16.90;5.13;;;;;;;26.80;61.46;101177.91;5073693;28;20041;-83
2022/08/29 03:08:30;;;;;;;14.13;5.78;;;;;;;26.78;61.42;101171.66;5065806;28;20059;-84
2022/08/29 03:10:55;;;;;;;;;;;;;;;26.81;61.95;101170.75;5070167;28;20052;-82
2022/08/29 03:13:21;;;;;;;19.50;6.43;;;;;;;26.66;61.45;101152.97;5072562;28;19913;-83
2022/08/29 03:15:47;;;;;;;14.85;5.43;;;;;;;26.76;61.49;101168.09;5071579;28;20032;-83
2022/08/29 03:18:13;;;;;;;18.08;5.60;;;;;;;26.74;61.46;101164.53;5071369;28;20047;-82
2022/08/29 03:20:40;;;;;;;17.85;5.82;;;;;;;26.73;62.12;101173.50;5073386;28;20093;-80
2022/08/29 03:23:07;;;;;;;13.38;5.47;;;;;;;26.54;61.71;101148.56;5069166;28;20032;-81
2022/08/29 03:25:32;;;;;;;14.30;5.95;;;;;;;26.61;62.10;101160.16;5044733;28;20040;-81
2022/08/29 03:27:58;;;;;;;;;;;;;;;26.80;61.69;101182.38;5068552;28;20432;-81
2022/08/29 03:30:25;;;;;;;16.80;5.97;;;;;;;26.69;62.21;101176.16;5067014;28;19958;-82
2022/08/29 03:32:51;;;;;;;15.82;6.60;;;;;;;26.68;61.98;101177.09;5053668;28;20046;-81
2022/08/29 03:35:18;;;;;;;17.63;5.82;;;;;;;26.72;61.67;101187.78;5072796;28;20016;-81
2022/08/29 03:37:44;;;;;;;14.05;5.70;;;;;;;26.73;61.22;101192.25;5072896;28;20013;-80
2022/08/29 03:40:11;;;;;;;18.45;5.88;;;;;;;26.70;61.16;101188.69;5073204;28;20119;-81
2022/08/29 03:42:38;;;;;;;14.13;5.65;;;;;;;26.69;61.77;101200.28;5055373;28;20485;-81
2022/08/29 03:45:08;;;;;;;14.02;5.90;;;;;;;26.68;60.97;101199.41;5072948;28;20086;-81
2022/08/29 03:47:33;;;;;;;17.17;5.70;;;;;;;26.71;60.97;101210.13;5071880;28;20031;-82
2022/08/29 03:49:59;;;;;;;19.58;5.93;;;;;;;26.70;62.13;101207.44;5072700;28;20029;-82
2022/08/29 03:52:25;;;;;;;16.30;5.78;;;;;;;26.67;60.88;101210.13;5072215;28;20077;-82
2022/08/29 03:54:51;;;;;;;;;;;;;;;26.71;61.36;101218.16;5073396;28;20020;-82
2022/08/29 03:57:16;;;;;;;16.42;5.78;;;;;;;26.68;61.25;101209.25;5055097;28;19914;-82
2022/08/29 03:59:42;;;;;;;16.38;5.85;;;;;;;26.64;62.42;101213.72;5069144;28;20047;-82
2022/08/29 04:02:08;;;;;;;16.08;5.93;;;;;;;26.68;61.49;101217.28;5071917;28;20036;-82
2022/08/29 04:07:18;;;;;;;17.20;5.85;;;;;;;26.68;61.28;101211.91;5071631;28;20062;-82
2022/08/29 04:09:43;;;;;;;15.82;5.45;;;;;;;26.66;62.36;101211.91;5072589;28;20025;-82
2022/08/29 04:12:10;;;;;;;24.48;6.00;;;;;;;26.66;61.58;101219.06;5054688;28;20595;-82
2022/08/29 04:14:37;;;;;;;14.80;6.07;;;;;;;26.40;61.13;101183.44;5071436;28;20024;-83
2022/08/29 04:17:03;;;;;;;14.50;5.50;;;;;;;26.66;60.91;101216.41;5064308;28;20029;-82
2022/08/29 04:19:29;;;;;;;14.38;5.28;;;;;;;26.64;61.30;101220.88;5065762;28;20058;-81
2022/08/29 04:21:55;;;;;;;;;;;;;;;26.66;61.13;101227.09;5064143;28;20032;-80
2022/08/29 04:24:22;;;;;;;16.73;6.18;;;;;;;26.63;61.42;101219.06;5070876;28;19921;-81
2022/08/29 04:26:48;;;;;;;19.38;6.05;;;;;;;26.62;61.72;101223.53;5071166;28;20033;-80
2022/08/29 04:29:13;;;;;;;14.63;6.07;;;;;;;26.49;61.00;101206.59;5070499;28;20059;-80
2022/08/29 04:31:39;;;;;;;;;;;;;;;26.64;60.82;101229.78;5072945;28;20028;-79
2022/08/29 04:34:06;;;;;;;16.90;6.25;;;;;;;26.65;61.36;101233.34;5070524;28;19909;-80
2022/08/29 04:36:37;;;;;;;19.35;5.82;;;;;;;26.58;61.06;101240.53;5069467;28;20082;-80
2022/08/29 04:39:04;;;;;;;23.48;5.82;;;;;;;26.37;61.13;101199.53;5061366;28;20029;-80
2022/08/29 04:41:30;;;;;;;22.83;5.97;;;;;;;26.55;61.08;101235.16;5061458;28;20386;-80
2022/08/29 04:43:55;;;;;;;;;;;;;;;26.64;61.43;101239.63;5071641;28;20542;-80
2022/08/29 04:46:21;;;;;;;16.40;5.80;;;;;;;26.54;60.92;101236.03;5070416;28;19924;-80
2022/08/29 04:48:47;;;;;;;18.15;6.03;;;;;;;26.54;61.74;101231.59;5070352;28;20032;-80
2022/08/29 04:51:13;;;;;;;14.35;5.90;;;;;;;26.60;60.98;101234.25;5071816;28;20036;-81
2022/08/29 04:53:39;;;;;;;13.98;5.85;;;;;;;26.53;61.14;101231.59;5066226;28;20036;-81
2022/08/29 04:56:08;;;;;;;17.88;5.65;;;;;;;26.60;60.96;101238.72;5063974;28;20040;-81
2022/08/29 04:58:36;;;;;;;14.98;5.88;;;;;;;26.60;61.58;101242.28;5068664;28;20129;-81
2022/08/29 05:01:02;;;;;;;16.90;5.95;;;;;;;26.58;61.33;101237.84;5029698;28;20435;-80
2022/08/29 05:03:28;;;;;;;18.10;6.50;;;;;;;26.62;61.30;101238.72;5068255;28;20028;-80
2022/08/29 05:06:05;;;;;;;19.73;6.10;;;;;;;26.60;61.18;101236.06;5048426;28;20530;-79
2022/08/29 05:08:31;;;;;;;14.65;5.65;;;;;;;26.59;61.21;101237.84;5068118;28;20066;-80
2022/08/29 05:10:57;;;;;;;17.05;6.20;;;;;;;26.58;61.30;101241.41;5071232;28;20021;-80
2022/08/29 05:13:22;;;;;;;18.10;6.13;;;;;;;26.60;60.97;101241.41;5068074;28;20031;-81
2022/08/29 05:15:48;;;;;;;17.88;6.15;;;;;;;26.58;60.83;101237.84;5071084;28;20478;-80
2022/08/29 05:18:15;;;;;;;;;;;;;;;26.64;61.05;101242.28;5070804;28;20117;-80
2022/08/29 05:20:42;;;;;;;17.35;6.22;;;;;;;26.58;61.10;101240.53;5069293;28;20011;-81
2022/08/29 05:23:08;;;;;;;19.35;6.35;;;;;;;26.57;60.89;101245.00;5069570;28;20040;-81
2022/08/29 05:25:34;;;;;;;16.92;6.00;;;;;;;26.54;61.24;101239.63;5068893;28;20059;-82
2022/08/29 05:28:00;;;;;;;17.00;6.03;;;;;;;26.56;61.15;101250.31;5047686;28;20025;-82
2022/08/29 05:30:26;;;;;;;16.73;6.03;;;;;;;26.55;61.30;101248.56;5068057;28;20031;-81
2022/08/29 05:32:53;;;;;;;;;;;;;;;26.62;61.10;101253.00;5050778;28;20089;-82
2022/08/29 05:35:19;;;;;;;11.93;5.72;;;;;;;26.54;61.44;101244.09;5053220;28;20361;-81
2022/08/29 05:37:45;;;;;;;16.17;5.97;;;;;;;26.56;61.35;101259.31;5070435;28;20029;-82
2022/08/29 05:40:10;;;;;;;;;;;;;;;26.63;61.24;101252.13;5070573;28;20028;-81
2022/08/29 05:42:36;;;;;;;15.55;5.97;;;;;;;26.59;61.54;101245.88;5067445;28;19916;-82
2022/08/29 05:45:05;;;;;;;17.58;6.57;;;;;;;26.54;61.80;101246.75;5054084;28;20028;-81
2022/08/29 05:47:31;;;;;;;15.88;6.22;;;;;;;26.60;61.89;101254.81;5074643;28;20024;-81
2022/08/29 05:49:57;;;;;;;14.50;6.25;;;;;;;26.58;62.20;101259.28;5072803;28;20115;-80
2022/08/29 05:52:23;;;;;;;16.92;6.30;;;;;;;26.57;61.57;101246.81;5053338;28;20063;-82
2022/08/29 05:54:49;;;;;;;14.60;6.22;;;;;;;26.49;61.86;101240.56;5047684;28;20442;-82
2022/08/29 05:57:18;;;;;;;16.85;6.13;;;;;;;26.62;62.00;101260.16;5072791;28;20665;-82
2022/08/29 05:59:44;;;;;;;15.18;6.70;;;;;;;26.59;61.92;101269.13;5070264;28;20044;-82
2022/08/29 06:02:10;;;;;;;13.13;6.47;;;;;;;26.55;62.04;101260.16;5070792;28;20021;-81
2022/08/29 06:04:37;;;;;;;14.80;6.55;;;;;;;26.60;62.23;101268.19;5071898;28;20032;-81
2022/08/29 06:07:04;;;;;;;13.35;5.95;;;;;;;26.46;62.30;101251.25;5064759;28;20032;-81
2022/08/29 06:09:29;;;;;;;17.92;6.55;;;;;;;26.55;62.21;101259.28;5074012;28;20020;-81
2022/08/29 06:11:57;;;;;;;16.58;6.80;;;;;;;26.55;62.30;101256.59;5057125;28;20093;-82
2022/08/29 06:14:23;;;;;;;19.40;6.50;;;;;;;26.57;62.02;101253.03;5071795;28;20024;-82
2022/08/29 06:16:48;;;;;;;15.50;6.68;;;;;;;26.54;61.98;101249.44;5057001;28;20489;-83
2022/08/29 06:19:14;;;;;;;;;;;;;;;26.64;62.03;101255.69;5056970;28;20035;-83
2022/08/29 06:21:40;;;;;;;16.20;6.03;;;;;;;26.28;61.81;101204.03;5074227;28;19908;-84
2022/08/29 06:24:05;;;;;;;;;;;;;;;26.60;62.02;101261.03;5073624;28;20085;-83
2022/08/29 06:26:31;;;;;;;18.25;7.10;;;;;;;26.58;62.30;101256.59;5036105;28;19913;-83
2022/08/29 06:28:57;;;;;;;18.38;6.47;;;;;;;26.55;62.67;101252.13;5049955;28;20123;-80
2022/08/29 06:31:26;;;;;;;19.17;7.03;;;;;;;26.52;62.70;101251.22;5074830;28;20020;-80
2022/08/29 06:33:59;;;;;;;21.08;6.88;;;;;;;26.46;62.76;101232.50;5074844;28;20017;-80
2022/08/29 06:36:26;;;;;;;21.20;6.85;;;;;;;26.52;62.73;101253.91;5056953;28;20020;-80
2022/08/29 06:38:55;;;;;;;11.75;6.22;;;;;;;26.56;63.06;101255.69;5073086;28;20050;-80
2022/08/29 06:41:20;;;;;;;18.40;7.05;;;;;;;26.34;62.90;101225.44;5055671;28;20404;-80
2022/08/29 06:43:46;;;;;;;;;;;;;;;26.60;62.62;101263.72;5074943;28;20021;-80
2022/08/29 06:46:21;;;;;;;19.88;6.57;;;;;;;26.54;63.11;101261.06;5066475;28;19923;-82
2022/08/29 06:48:47;;;;;;;14.45;6.55;;;;;;;26.52;62.83;101260.19;5074172;28;20016;-80
2022/08/29 06:51:12;;;;;;;;;;;;;;;26.53;63.10;101264.63;5075018;28;20031;-80
2022/08/29 06:53:38;;;;;;;15.38;5.93;;;;;;;26.46;62.76;101254.84;5074504;28;19908;-80
2022/08/29 06:56:04;;;;;;;;;;;;;;;26.53;62.98;101264.63;5074383;28;20114;-80
2022/08/29 06:58:29;;;;;;;11.40;5.75;;;;;;;26.40;63.32;101253.06;5059407;28;19950;-81
2022/08/29 07:00:55;;;;;;;;;;;;;;;26.50;63.04;101271.78;5074587;28;20508;-81
2022/08/29 07:03:21;;;;;;;16.95;6.18;;;;;;;26.51;62.95;101265.53;5074012;28;19931;-81
2022/08/29 07:05:52;;;;;;;11.43;6.25;;;;;;;26.48;62.97;101254.81;5061805;28;20090;-80
2022/08/29 07:08:18;;;;;;;14.05;6.45;;;;;;;26.53;62.97;101269.09;5055852;28;20029;-80
2022/08/29 07:10:44;;;;;;;15.88;6.45;;;;;;;26.53;62.88;101269.09;5073644;28;20031;-80
2022/08/29 07:13:10;;;;;;;11.30;5.90;;;;;;;26.57;62.72;101271.78;5071396;28;20024;-80
2022/08/29 07:15:35;;;;;;;13.80;6.10;;;;;;;26.51;62.80;101266.41;5072815;28;20089;-81
2022/08/29 07:18:01;;;;;;;11.40;5.93;;;;;;;26.51;62.86;101266.41;5073582;28;20025;-82
2022/08/29 07:20:27;;;;;;;9.32;5.32;;;;;;;26.58;62.75;101270.88;5073723;28;20475;-81
2022/08/29 07:22:54;;;;;;;14.75;5.70;;;;;;;26.56;62.65;101274.44;5072419;28;20512;-82
2022/08/29 07:25:20;;;;;;;12.93;5.68;;;;;;;26.56;62.55;101279.78;5070150;28;20028;-81
2022/08/29 07:27:47;;;;;;;13.50;5.55;;;;;;;26.59;62.64;101272.69;5071967;28;20055;-82
2022/08/29 07:30:15;;;;;;;8.93;5.43;;;;;;;26.57;62.68;101279.81;5073713;28;20039;-81
2022/08/29 07:32:43;;;;;;;9.38;5.30;;;;;;;26.56;62.41;101283.41;5073209;28;20111;-81
2022/08/29 07:35:13;;;;;;;16.63;5.85;;;;;;;26.45;62.51;101270.91;5073540;28;20090;-81
2022/08/29 07:37:38;;;;;;;10.75;5.30;;;;;;;26.51;62.63;101282.50;5073155;28;20074;-80
2022/08/29 07:40:06;;;;;;;9.65;5.55;;;;;;;26.51;62.56;101290.53;5067730;28;20036;-81
2022/08/29 07:42:33;;;;;;;14.18;5.57;;;;;;;26.47;62.64;101283.41;5071182;28;20028;-80
2022/08/29 07:44:59;;;;;;;12.13;5.53;;;;;;;26.51;62.54;101287.84;5066116;28;20096;-81
2022/08/29 07:47:25;;;;;;;10.75;5.45;;;;;;;26.40;63.16;101279.84;5054236;28;20020;-81
2022/08/29 07:49:52;;;;;;;10.98;5.72;;;;;;;26.49;62.69;101289.66;5070913;28;20029;-81
2022/08/29 07:52:18;;;;;;;12.52;5.88;;;;;;;26.42;63.13;101282.53;5070366;28;20032;-80
2022/08/29 07:54:43;;;;;;;8.90;5.57;;;;;;;26.40;62.88;101279.84;5070051;28;20070;-81
2022/08/29 07:57:09;;;;;;;10.93;5.28;;;;;;;26.51;62.85;101292.31;5061534;28;20458;-80
2022/08/29 07:59:34;;;;;;;;;;;;;;;26.53;62.65;101285.19;5064293;28;20119;-80
2022/08/29 08:02:00;;;;;;;9.00;5.13;;;;;;;26.48;62.47;101285.19;5063128;28;19916;-81
2022/08/29 08:04:26;;;;;;;9.07;5.30;;;;;;;26.53;63.13;101301.25;5065629;28;20490;-81
2022/08/29 08:06:52;;;;;;;10.73;4.88;;;;;;;26.51;63.06;101300.34;5065334;28;20107;-81
2022/08/29 08:09:17;;;;;;;10.82;5.57;;;;;;;26.52;62.68;101305.72;5065152;28;20575;-81
2022/08/29 08:11:43;;;;;;;9.68;5.60;;;;;;;26.47;62.93;101294.09;5067641;28;20028;-81
2022/08/29 08:14:09;;;;;;;12.52;5.68;;;;;;;26.50;63.03;101298.56;5067378;28;20562;-81
2022/08/29 08:16:35;;;;;;;13.30;5.78;;;;;;;26.41;62.76;101276.25;5069062;28;20492;-81
2022/08/29 08:19:01;;;;;;;10.25;5.47;;;;;;;26.52;62.67;101296.75;5067715;28;20095;-81
2022/08/29 08:21:26;;;;;;;;;;;;;;;26.60;62.82;101306.59;5062949;28;20031;-82
2022/08/29 08:23:52;;;;;;;7.80;5.35;;;;;;;26.56;62.78;101301.22;5061377;28;20004;-81
2022/08/29 08:26:18;;;;;;;12.27;5.55;;;;;;;26.54;62.86;101306.59;5067382;28;20112;-82
2022/08/29 08:28:43;;;;;;;;;;;;;;;26.53;63.22;101299.44;5065888;28;20502;-81
2022/08/29 08:31:11;;;;;;;10.32;5.50;;;;;;;26.54;62.83;101303.00;5061541;28;19928;-81
2022/08/29 08:33:38;;;;;;;7.63;5.40;;;;;;;26.62;62.79;101308.38;5066381;28;20401;-80
2022/08/29 08:36:37;;;;;;;11.52;5.68;;;;;;;26.57;62.76;101298.59;5065050;28;20025;-80
2022/08/29 08:39:03;;;;;;;12.85;5.72;;;;;;;26.57;62.88;101297.69;5067306;28;20394;-81
2022/08/29 08:41:32;;;;;;;9.55;5.40;;;;;;;26.63;62.62;101302.13;5071044;28;20035;-83
2022/08/29 08:44:14;;;;;;;11.23;5.50;;;;;;;26.69;62.88;101305.69;5066087;28;20028;-84
2022/08/29 08:46:43;;;;;;;8.63;5.13;;;;;;;26.55;63.02;101286.06;5046209;28;20048;-83
2022/08/29 08:49:16;;;;;;;14.45;5.85;;;;;;;26.46;62.97;101267.31;5061973;28;20547;-82
2022/08/29 08:51:55;;;;;;;9.15;5.88;;;;;;;26.66;63.02;101303.00;5069118;28;20027;-83
2022/08/29 08:54:26;;;;;;;11.13;5.38;;;;;;;26.66;62.95;101302.13;5068798;28;20036;-82
2022/08/29 08:57:02;;;;;;;16.77;5.70;;;;;;;26.70;62.61;101310.13;5062587;28;20032;-82
2022/08/29 08:59:44;;;;;;;14.57;5.57;;;;;;;26.75;62.42;101315.47;5065172;28;20582;-81
2022/08/29 09:02:22;;;;;;;10.85;5.40;;;;;;;26.72;62.94;101312.81;5070254;28;20115;-80
2022/08/29 09:04:57;;;;;;;9.40;5.50;;;;;;;26.66;62.95;101311.03;5067973;28;20153;-79
2022/08/29 09:08:07;;;;;;;12.18;5.50;;;;;;;26.71;62.55;101311.03;5067437;28;20497;-81
2022/08/29 09:10:46;;;;;;;9.70;5.07;;;;;;;26.70;62.87;101299.41;5069207;28;20068;-81
2022/08/29 09:13:45;;;;;;;10.82;5.57;;;;;;;26.72;62.89;101312.81;5055621;28;20539;-81
2022/08/29 09:16:30;;;;;;;8.68;5.28;;;;;;;26.65;63.18;101301.25;5068809;28;20074;-82
2022/08/29 09:19:02;;;;;;;11.52;5.13;;;;;;;26.68;62.98;101293.19;5066441;28;20125;-81
2022/08/29 09:21:28;;;;;;;10.35;5.50;;;;;;;26.71;62.87;101300.31;5067974;28;20032;-81
2022/08/29 09:23:58;;;;;;;13.27;5.97;;;;;;;26.62;62.67;101278.91;5059194;28;20040;-82
2022/08/29 09:26:25;;;;;;;10.05;5.38;;;;;;;26.68;62.38;101269.06;5050539;28;20032;-82
2022/08/29 09:28:52;;;;;;;9.40;5.78;;;;;;;26.74;62.84;101293.16;5067539;28;20524;-82
2022/08/29 09:31:23;;;;;;;8.30;5.18;;;;;;;26.77;62.92;101295.81;5066476;28;20044;-83
2022/08/29 09:34:00;;;;;;;8.05;5.07;;;;;;;26.63;62.67;101270.88;5065820;28;20033;-82
2022/08/29 09:36:35;;;;;;;;;;;;;;;26.80;62.93;101294.94;5053725;28;20047;-81
2022/08/29 09:39:14;;;;;;;10.80;5.57;;;;;;;26.76;62.86;101301.19;5052276;28;19912;-82
2022/08/29 09:41:40;;;;;;;9.40;5.22;;;;;;;26.69;62.81;101289.63;5070903;28;20085;-82
2022/08/29 09:44:08;;;;;;;9.48;5.30;;;;;;;26.69;62.76;101284.25;5067013;28;20032;-81
2022/08/29 09:46:34;;;;;;;9.90;5.55;;;;;;;26.74;62.83;101295.84;5052997;28;20574;-81
2022/08/29 09:48:59;;;;;;;8.73;5.78;;;;;;;26.73;62.93;101304.78;5063453;28;20025;-80
2022/08/29 09:51:34;;;;;;;8.88;5.00;;;;;;;26.65;62.92;101281.56;5070915;28;20029;-82
2022/08/29 09:54:14;;;;;;;12.57;5.38;;;;;;;26.80;62.83;101301.16;5065990;28;20032;-82
2022/08/29 09:57:06;;;;;;;11.45;5.50;;;;;;;26.77;62.82;101306.53;5067319;28;20032;-82
2022/08/29 09:59:35;;;;;;;10.30;5.50;;;;;;;26.63;62.92;101283.38;5046648;28;20536;-82
2022/08/29 10:02:31;;;;;;;12.35;5.85;;;;;;;26.77;63.24;101300.28;5069998;28;20035;-82
2022/08/29 10:05:04;;;;;;;11.82;5.82;;;;;;;26.75;63.27;101292.25;5056001;28;20033;-81
2022/08/29 10:07:48;;;;;;;11.40;5.55;;;;;;;26.74;63.20;101300.31;5064335;28;20029;-82
2022/08/29 10:10:17;;;;;;;12.68;5.65;;;;;;;26.80;62.93;101298.50;5069906;28;20036;-82
2022/08/29 10:13:10;;;;;;;9.50;5.47;;;;;;;26.80;63.02;101301.16;5067250;28;20029;-81
2022/08/29 10:15:42;;;;;;;10.98;5.93;;;;;;;26.81;62.96;101299.38;5062371;28;20025;-82
2022/08/29 10:18:23;;;;;;;10.18;5.47;;;;;;;26.80;63.11;101302.97;5051536;28;20032;-81
2022/08/29 10:20:54;;;;;;;11.48;5.72;;;;;;;26.60;63.03;101260.16;5062212;28;20116;-80
2022/08/29 10:23:49;;;;;;;11.45;5.65;;;;;;;26.86;63.11;101299.34;5064993;28;20032;-81
2022/08/29 10:26:27;;;;;;;10.60;5.60;;;;;;;26.85;63.04;101301.13;5068197;28;20205;-81
2022/08/29 10:29:18;;;;;;;12.20;6.18;;;;;;;26.68;62.93;101263.72;5068417;28;20033;-81
2022/08/29 10:31:56;;;;;;;9.32;5.75;;;;;;;26.86;62.78;101300.25;5063527;28;20089;-83
2022/08/29 10:35:03;;;;;;;11.85;5.65;;;;;;;26.85;63.17;101298.47;5065547;28;20029;-82
2022/08/29 10:37:39;;;;;;;10.40;5.80;;;;;;;26.80;63.23;101295.81;5027801;28;20045;-82
2022/08/29 10:40:18;;;;;;;8.50;5.60;;;;;;;26.76;63.03;101287.78;5056639;28;20047;-82
2022/08/29 10:42:44;;;;;;;11.82;5.80;;;;;;;26.83;62.94;101289.53;5072956;28;20028;-82
2022/08/29 10:45:17;;;;;;;11.35;5.70;;;;;;;26.90;63.02;101302.03;5063128;28;20642;-81
2022/08/29 10:47:48;;;;;;;11.52;5.70;;;;;;;26.89;62.97;101307.38;5071898;28;20028;-81
2022/08/29 10:50:31;;;;;;;8.77;5.45;;;;;;;26.95;63.08;101310.03;5062684;28;20039;-82
2022/08/29 10:53:06;;;;;;;9.95;5.70;;;;;;;26.92;63.25;101304.69;5053280;28;20032;-81
2022/08/29 10:56:14;;;;;;;9.85;5.88;;;;;;;26.91;63.04;101308.28;5072770;28;20025;-82
2022/08/29 10:59:17;;;;;;;11.40;5.65;;;;;;;26.91;63.17;101306.47;5023890;28;20050;-80
2022/08/29 11:01:56;;;;;;;9.35;5.30;;;;;;;26.84;63.51;101304.72;5063839;28;20521;-80
2022/08/29 11:04:31;;;;;;;10.48;5.68;;;;;;;26.87;63.36;101304.69;5060866;28;20047;-79
2022/08/29 11:07:15;;;;;;;11.45;5.65;;;;;;;26.91;63.48;101305.59;5070872;28;20035;-80
2022/08/29 11:09:54;;;;;;;11.23;5.80;;;;;;;26.83;63.12;101281.50;5072529;28;20046;-81
2022/08/29 11:12:29;;;;;;;12.63;6.13;;;;;;;26.93;63.07;101295.75;5066702;28;20036;-80
2022/08/29 11:15:29;;;;;;;10.57;5.55;;;;;;;26.89;63.21;101285.94;5048191;28;20394;-82
2022/08/29 11:18:12;;;;;;;10.20;5.50;;;;;;;26.92;63.45;101293.94;5061366;28;20110;-81
2022/08/29 11:20:46;;;;;;;9.88;5.88;;;;;;;26.94;63.54;101286.78;5066445;28;20501;-82
2022/08/29 11:23:15;;;;;;;9.30;5.50;;;;;;;26.91;63.71;101290.41;5062823;28;20031;-81
2022/08/29 11:25:42;;;;;;;11.07;5.85;;;;;;;26.91;63.67;101293.06;5073446;28;20033;-81
2022/08/29 11:28:31;;;;;;;10.07;5.82;;;;;;;27.01;63.29;101289.44;5073486;28;20029;-81
2022/08/29 11:31:08;;;;;;;11.00;5.93;;;;;;;27.02;63.08;101280.50;5074141;28;20119;-81
2022/08/29 11:33:49;;;;;;;10.05;5.50;;;;;;;27.09;63.33;101283.13;5076432;28;20386;-81
2022/08/29 11:36:48;;;;;;;11.40;5.78;;;;;;;26.93;63.37;101263.59;5074298;28;20025;-81
2022/08/29 11:39:33;;;;;;;9.95;5.75;;;;;;;27.10;62.83;101268.84;5062654;28;20028;-81